Time;durP1;ratioP1;P1;durP2;ratioP2;P2;SDS_P1;SDS_P2;PMS_P1;PMS_P2;Temp;Humidity;BMP_temperature;BMP_pressure;BME280_temperature;BME280_humidity;BME280_pressure;Samples;Min_cycle;Max_cycle;Signal;HPM_P1;HPM_P2
2022/11/19 00:01:19;;;;;;;16.23;8.37;;;;;;;0.44;59.16;99707.75;4935059;28;96747;-86
2022/11/19 00:03:44;;;;;;;15.70;9.70;;;;;;;0.40;59.92;99702.59;4919119;28;96813;-86
2022/11/19 00:06:21;;;;;;;14.30;8.63;;;;;;;0.31;60.08;99700.03;4930548;28;100191;-86
2022/11/19 00:08:47;;;;;;;18.53;9.67;;;;;;;0.47;59.73;99719.81;4919446;28;101862;-86
2022/11/19 00:12:53;;;;;;;19.07;10.27;;;;;;;0.40;60.20;99715.50;4938307;28;96687;-86
2022/11/19 00:14:04;;;;;;;14.88;9.70;;;;;;;0.39;60.23;99722.41;4955200;28;96804;-87
2022/11/19 00:16:29;;;;;;;15.97;10.00;;;;;;;0.35;60.48;99718.13;4937458;28;101827;-87
2022/11/19 00:18:55;;;;;;;15.33;10.07;;;;;;;0.24;60.64;99696.63;4922052;28;100155;-86
2022/11/19 00:21:20;;;;;;;17.80;9.13;;;;;;;0.45;60.50;99740.47;4937483;28;96940;-87
2022/11/19 00:23:46;;;;;;;16.37;10.63;;;;;;;0.21;60.64;99691.47;4934939;28;96730;-86
2022/11/19 00:26:13;;;;;;;16.63;10.60;;;;;;;0.24;60.89;99708.69;4921880;28;101630;-87
2022/11/19 00:28:39;;;;;;;21.83;11.07;;;;;;;0.44;61.35;99741.34;4937339;28;98500;-87
2022/11/19 00:31:06;;;;;;;17.53;11.20;;;;;;;0.41;61.53;99741.34;4938053;28;97022;-87
2022/11/19 00:33:32;;;;;;;20.20;11.07;;;;;;;0.39;61.08;99727.56;4954506;28;96699;-86
2022/11/19 00:35:58;;;;;;;21.00;11.50;;;;;;;0.52;60.84;99738.72;4937301;28;100842;-86
2022/11/19 00:38:24;;;;;;;20.43;11.70;;;;;;;0.49;61.45;99748.19;4937279;28;97463;-86
2022/11/19 00:40:50;;;;;;;25.47;12.03;;;;;;;0.39;61.87;99737.03;4937675;28;96749;-86
2022/11/19 00:45:59;;;;;;;17.87;10.80;;;;;;;0.44;61.58;99745.66;4938163;28;101418;-86
2022/11/19 00:48:25;;;;;;;20.90;11.23;;;;;;;0.46;61.85;99749.06;4953632;28;101392;-86
2022/11/19 00:50:50;;;;;;;22.07;12.10;;;;;;;0.37;61.84;99738.75;4935952;28;97179;-86
2022/11/19 00:53:16;;;;;;;22.43;12.73;;;;;;;0.36;62.03;99740.47;4937349;28;96774;-86
2022/11/19 00:55:41;;;;;;;18.00;11.50;;;;;;;0.48;61.60;99751.66;4924258;28;99964;-86
2022/11/19 00:58:07;;;;;;;22.93;12.77;;;;;;;0.44;61.88;99732.72;4936478;28;101183;-86
2022/11/19 01:00:32;;;;;;;21.63;12.77;;;;;;;0.39;61.58;99719.81;4937781;28;96774;-86
2022/11/19 01:02:58;;;;;;;23.17;13.17;;;;;;;0.57;61.87;99749.91;4921041;28;96831;-88
2022/11/19 01:05:23;;;;;;;19.57;12.00;;;;;;;0.55;62.11;99746.44;4937181;28;101004;-86
2022/11/19 01:07:49;;;;;;;24.87;12.50;;;;;;;0.65;61.77;99755.06;4936970;28;100337;-86
2022/11/19 01:10:15;;;;;;;22.03;12.97;;;;;;;0.60;61.34;99752.47;4936731;28;97051;-87
2022/11/19 01:15:24;;;;;;;21.80;12.23;;;;;;;0.57;61.83;99755.06;4939389;28;101630;-86
2022/11/19 01:17:50;;;;;;;19.57;13.00;;;;;;;0.58;62.23;99741.31;4927204;28;109471;-86
2022/11/19 01:20:15;;;;;;;24.00;12.77;;;;;;;0.45;62.18;99734.44;4937083;28;96739;-86
2022/11/19 01:22:41;;;;;;;21.43;12.03;;;;;;;0.45;61.96;99731.84;4937378;28;96766;-86
2022/11/19 01:25:07;;;;;;;22.43;12.63;;;;;;;0.55;61.74;99750.75;4936786;28;101676;-86
2022/11/19 01:27:32;;;;;;;25.57;12.40;;;;;;;0.58;62.01;99746.47;4951720;28;101385;-86
2022/11/19 01:29:57;;;;;;;20.63;12.87;;;;;;;0.62;62.14;99752.47;4920387;28;97070;-86
2022/11/19 01:32:23;;;;;;;23.60;12.20;;;;;;;0.49;61.50;99722.38;4936735;28;96747;-86
2022/11/19 01:34:50;;;;;;;16.53;10.97;;;;;;;0.45;61.48;99724.13;4952862;28;101395;-86
2022/11/19 01:37:15;;;;;;;18.67;10.80;;;;;;;0.39;60.60;99716.38;4919145;28;101206;-86
2022/11/19 01:39:41;;;;;;;22.07;10.93;;;;;;;0.59;60.80;99753.34;4936778;28;96738;-86
2022/11/19 01:42:48;;;;;;;17.83;10.47;;;;;;;0.59;61.13;99743.00;4936156;28;96915;-86
2022/11/19 01:45:05;;;;;;;18.50;11.30;;;;;;;0.62;60.71;99744.75;4944958;28;100499;-87
2022/11/19 01:47:31;;;;;;;18.63;11.20;;;;;;;0.72;61.19;99761.91;4936516;28;100155;-86
2022/11/19 01:49:56;;;;;;;17.60;10.67;;;;;;;0.64;60.62;99749.03;4953676;28;96832;-86
2022/11/19 01:52:22;;;;;;;17.57;10.60;;;;;;;0.55;60.42;99740.44;4952869;28;96785;-86
2022/11/19 01:54:49;;;;;;;16.97;10.90;;;;;;;0.59;61.23;99747.31;4919437;28;100999;-87
2022/11/19 01:57:15;;;;;;;20.73;11.37;;;;;;;0.61;61.56;99767.13;4918263;28;100262;-86
2022/11/19 01:59:43;;;;;;;18.43;11.23;;;;;;;0.66;61.45;99772.28;4935757;28;96930;-86
2022/11/19 02:02:09;;;;;;;22.10;10.73;;;;;;;0.47;61.34;99742.16;4936442;28;96792;-87
2022/11/19 02:04:35;;;;;;;19.00;11.03;;;;;;;0.62;61.10;99755.94;4952524;28;98107;-85
2022/11/19 02:07:01;;;;;;;16.97;10.30;;;;;;;0.79;60.96;99781.72;4920861;28;101197;-87
2022/11/19 02:09:27;;;;;;;20.00;11.43;;;;;;;0.71;61.17;99767.09;4917770;28;97493;-87
2022/11/19 02:12:18;;;;;;;17.63;10.90;;;;;;;0.73;61.43;99784.31;4937633;28;96870;-86
2022/11/19 02:15:00;;;;;;;19.13;10.90;;;;;;;0.73;61.49;99793.78;4924063;28;100707;-86
2022/11/19 02:17:39;;;;;;;20.48;11.32;;;;;;;0.74;61.15;99786.03;4935921;28;100523;-86
2022/11/19 02:20:23;;;;;;;24.53;11.83;;;;;;;0.76;61.34;99794.66;4952814;28;97119;-87
2022/11/19 02:23:33;;;;;;;18.70;10.73;;;;;;;0.75;61.63;99800.66;4955484;28;97409;-86
2022/11/19 02:26:36;;;;;;;20.57;11.13;;;;;;;0.75;61.94;99795.50;4943013;28;102064;-87
2022/11/19 02:29:28;;;;;;;19.10;11.40;;;;;;;0.79;61.29;99804.13;4936027;28;100945;-87
2022/11/19 02:31:57;;;;;;;20.13;10.93;;;;;;;0.79;61.62;99804.13;4952244;28;96682;-87
2022/11/19 02:34:46;;;;;;;17.60;11.20;;;;;;;0.78;61.33;99792.91;4935020;28;97113;-86
2022/11/19 02:37:15;;;;;;;19.93;10.60;;;;;;;0.74;61.52;99795.50;4953705;28;98858;-86
2022/11/19 02:39:53;;;;;;;25.67;13.70;;;;;;;0.80;61.94;99809.25;4916334;28;101408;-85
2022/11/19 02:42:43;;;;;;;20.97;11.67;;;;;;;0.72;61.83;99803.25;4931954;28;97047;-86
2022/11/19 02:45:29;;;;;;;22.33;11.97;;;;;;;0.73;62.10;99809.28;4936989;28;96814;-86
2022/11/19 02:48:02;;;;;;;22.57;12.33;;;;;;;0.70;62.55;99810.16;4951805;28;98171;-87
2022/11/19 02:50:35;;;;;;;21.53;12.13;;;;;;;0.71;61.92;99809.28;4939404;28;98324;-86
2022/11/19 02:53:03;;;;;;;23.83;12.03;;;;;;;0.74;61.96;99819.63;4929685;28;96747;-87
2022/11/19 02:55:28;;;;;;;21.63;12.27;;;;;;;0.79;61.80;99814.47;4935416;28;96823;-86
2022/11/19 03:04:28;;;;;;;18.63;11.23;;;;;;;0.74;62.03;99821.34;4935068;28;101446;-86
2022/11/19 03:06:27;;;;;;;21.07;11.33;;;;;;;0.63;61.76;99814.47;4938403;28;96914;-87
2022/11/19 03:08:53;;;;;;;21.67;12.00;;;;;;;0.64;61.30;99805.88;4932377;28;99998;-86
2022/11/19 03:11:21;;;;;;;17.37;11.13;;;;;;;0.59;60.87;99797.25;4929097;28;100306;-87
2022/11/19 03:16:46;;;;;;;17.83;10.13;;;;;;;0.71;60.86;99817.03;4951770;28;96730;-87
2022/11/19 03:19:22;;;;;;;19.60;11.03;;;;;;;0.55;60.63;99781.75;4951871;28;98173;-87
2022/11/19 03:22:02;;;;;;;18.10;11.37;;;;;;;0.76;60.51;99814.47;4930458;28;100280;-87
2022/11/19 03:24:39;;;;;;;17.80;10.50;;;;;;;0.82;59.95;99828.22;4904860;28;96837;-86
2022/11/19 03:27:17;;;;;;;18.83;11.07;;;;;;;0.73;61.12;99822.19;4935930;28;96829;-87
2022/11/19 03:29:46;;;;;;;17.70;10.37;;;;;;;0.78;60.67;99828.22;4937497;28;98227;-86
2022/11/19 03:32:16;;;;;;;19.00;10.37;;;;;;;0.78;60.53;99833.38;4919275;28;101630;-87
2022/11/19 03:34:43;;;;;;;24.53;11.17;;;;;;;0.63;60.94;99813.59;4934996;28;97381;-86
2022/11/19 03:37:10;;;;;;;20.90;11.47;;;;;;;0.78;60.68;99834.25;4927798;28;96801;-87
2022/11/19 03:39:37;;;;;;;17.60;10.20;;;;;;;0.59;60.98;99810.19;4949214;28;101390;-87
2022/11/19 03:42:04;;;;;;;24.47;10.77;;;;;;;0.80;59.83;99842.84;4921524;28;98736;-86
2022/11/19 03:44:35;;;;;;;20.50;10.80;;;;;;;0.77;59.41;99839.44;4930720;28;96887;-86
2022/11/19 03:47:06;;;;;;;24.87;10.20;;;;;;;0.83;59.78;99842.84;4955596;28;96869;-86
2022/11/19 03:49:34;;;;;;;18.80;10.70;;;;;;;0.76;59.86;99830.81;4922076;28;100189;-86
2022/11/19 03:52:07;;;;;;;18.93;10.33;;;;;;;0.71;59.79;99842.88;4922526;28;101016;-86
2022/11/19 03:54:32;;;;;;;20.00;10.77;;;;;;;0.36;60.00;99788.69;4926367;28;97199;-87
2022/11/19 03:56:58;;;;;;;14.90;9.00;;;;;;;0.52;59.74;99817.94;4936056;28;96847;-86
2022/11/19 03:59:24;;;;;;;13.93;9.07;;;;;;;0.77;58.06;99847.19;4937990;28;100845;-87
2022/11/19 04:01:51;;;;;;;15.20;9.00;;;;;;;0.76;58.22;99848.91;4954357;28;99146;-87
2022/11/19 04:07:11;;;;;;;12.93;8.10;;;;;;;0.71;57.41;99850.63;4955250;28;96741;-86
2022/11/19 04:09:38;;;;;;;14.50;8.10;;;;;;;0.42;57.20;99817.94;4954358;28;100356;-87
2022/11/19 04:12:04;;;;;;;16.90;8.63;;;;;;;0.53;57.38;99851.50;4938022;28;98017;-86
2022/11/19 04:14:29;;;;;;;14.50;9.00;;;;;;;0.49;58.05;99847.19;4921730;28;96987;-86
2022/11/19 04:16:55;;;;;;;13.93;8.17;;;;;;;0.41;57.22;99829.16;4939050;28;97651;-87
2022/11/19 04:19:21;;;;;;;13.77;8.60;;;;;;;0.67;57.40;99861.84;4954444;28;97300;-86
2022/11/19 04:21:46;;;;;;;18.63;8.97;;;;;;;0.30;57.34;99799.88;4938070;28;100098;-87
2022/11/19 04:24:12;;;;;;;14.17;8.67;;;;;;;0.45;57.26;99836.00;4937932;28;96854;-87
2022/11/19 04:26:37;;;;;;;13.93;8.30;;;;;;;0.56;57.42;99855.81;4922185;28;98382;-86
2022/11/19 04:29:03;;;;;;;15.40;9.70;;;;;;;0.50;57.51;99871.31;4948849;28;97737;-87
2022/11/19 04:31:29;;;;;;;19.60;10.77;;;;;;;0.34;58.36;99836.88;4932001;28;99715;-85
2022/11/19 04:33:54;;;;;;;23.70;10.63;;;;;;;0.47;58.75;99868.72;4929664;28;96749;-87
2022/11/19 04:36:20;;;;;;;26.43;11.83;;;;;;;0.44;59.20;99867.88;4938014;28;96907;-87
2022/11/19 04:38:45;;;;;;;27.37;11.10;;;;;;;0.48;58.59;99878.22;4934445;28;97979;-86
2022/11/19 04:41:11;;;;;;;21.97;11.97;;;;;;;0.36;58.43;99866.16;4938268;28;98268;-86
2022/11/19 04:43:36;;;;;;;22.10;11.27;;;;;;;0.37;58.73;99873.88;4921117;28;96928;-86
2022/11/19 04:46:01;;;;;;;27.23;12.03;;;;;;;0.10;58.92;99851.50;4933066;28;96997;-87
2022/11/19 04:48:27;;;;;;;21.13;11.47;;;;;;;0.15;59.67;99872.19;4954121;28;99331;-87
2022/11/19 04:50:53;;;;;;;19.73;11.60;;;;;;;0.10;59.75;99871.31;4921625;28;101583;-86
2022/11/19 04:53:18;;;;;;;23.50;11.33;;;;;;;0.08;59.92;99862.69;4937121;28;96750;-87
2022/11/19 04:55:44;;;;;;;15.77;10.37;;;;;;;0.19;60.19;99900.56;4937266;28;96827;-87
2022/11/19 04:58:09;;;;;;;23.83;11.87;;;;;;;0.11;60.31;99875.59;4936721;28;98158;-86
2022/11/19 05:00:35;;;;;;;20.43;10.37;;;;;;;0.27;60.42;99890.25;4936788;28;100265;-86
2022/11/19 05:03:00;;;;;;;23.13;11.90;;;;;;;0.19;60.62;99887.66;4937491;28;97341;-87
2022/11/19 05:05:26;;;;;;;19.40;11.40;;;;;;;0.15;60.60;99887.66;4921737;28;97033;-86
2022/11/19 05:07:51;;;;;;;24.17;11.60;;;;;;;0.09;60.66;99885.94;4920513;28;101070;-86
2022/11/19 05:10:17;;;;;;;24.73;11.57;;;;;;;-0.10;60.95;99876.44;4954730;28;98500;-86
2022/11/19 05:12:42;;;;;;;21.87;11.47;;;;;;;-0.29;61.10;99845.44;4953514;28;96749;-86
2022/11/19 05:15:08;;;;;;;21.40;12.07;;;;;;;-0.07;61.40;99885.03;4921197;28;97158;-87
2022/11/19 05:17:34;;;;;;;20.70;12.50;;;;;;;-0.10;61.50;99876.44;4933083;28;101315;-86
2022/11/19 05:19:59;;;;;;;21.43;11.83;;;;;;;-0.29;61.69;99860.03;4918133;28;100077;-86
2022/11/19 05:22:25;;;;;;;20.07;12.37;;;;;;;-0.18;61.76;99881.56;4932850;28;96778;-86
2022/11/19 05:24:50;;;;;;;22.60;11.93;;;;;;;-0.09;61.61;99893.63;4937264;28;97415;-86
2022/11/19 05:27:16;;;;;;;20.97;11.67;;;;;;;-0.13;61.07;99895.34;4937351;28;101264;-86
2022/11/19 05:29:41;;;;;;;20.07;12.00;;;;;;;-0.36;63.92;99846.25;4936320;28;99518;-86
2022/11/19 05:32:07;;;;;;;21.03;13.17;;;;;;;-0.10;62.33;99897.91;4936969;28;96725;-86
2022/11/19 05:34:32;;;;;;;23.27;11.77;;;;;;;-0.16;61.53;99889.31;4917373;28;96817;-86
2022/11/19 05:36:58;;;;;;;19.53;12.30;;;;;;;-0.16;61.57;99895.31;4936832;28;98009;-85
2022/11/19 05:39:23;;;;;;;20.23;11.77;;;;;;;-0.27;62.23;99887.56;4953056;28;101245;-86
2022/11/19 05:41:49;;;;;;;21.60;12.13;;;;;;;-0.26;62.00;99909.94;4936736;28;96806;-86
2022/11/19 05:44:14;;;;;;;19.87;11.67;;;;;;;-0.29;61.92;99915.09;4937290;28;96841;-86
2022/11/19 05:46:40;;;;;;;23.07;10.97;;;;;;;-0.41;62.31;99896.97;4932995;28;99728;-86
2022/11/19 05:49:05;;;;;;;22.33;12.10;;;;;;;-0.25;62.33;99915.94;4937659;28;101094;-88
2022/11/19 05:51:31;;;;;;;23.20;11.63;;;;;;;-0.33;61.76;99904.72;4924291;28;97078;-86
2022/11/19 05:53:56;;;;;;;27.03;13.83;;;;;;;-0.37;62.27;99910.75;4937056;28;96782;-86
2022/11/19 05:56:22;;;;;;;24.27;13.03;;;;;;;-0.40;62.04;99913.31;4953265;28;101437;-87
2022/11/19 05:58:47;;;;;;;26.43;13.90;;;;;;;-0.67;62.53;99894.28;4936905;28;98201;-86
2022/11/19 06:01:13;;;;;;;27.20;14.57;;;;;;;-0.80;63.34;99885.63;4936765;28;97681;-86
2022/11/19 06:03:39;;;;;;;24.73;14.30;;;;;;;-0.48;62.84;99937.34;4934732;28;97775;-86
2022/11/19 06:06:05;;;;;;;28.13;14.17;;;;;;;-0.51;62.90;99932.16;4950917;28;98455;-86
2022/11/19 06:08:31;;;;;;;28.20;15.23;;;;;;;-0.40;63.02;99950.28;4935821;28;100268;-86
2022/11/19 06:10:56;;;;;;;28.47;14.03;;;;;;;-0.43;63.41;99960.59;4936998;28;96721;-86
2022/11/19 06:13:21;;;;;;;24.67;13.80;;;;;;;-0.38;62.94;99958.88;4914719;28;97888;-86
2022/11/19 06:15:47;;;;;;;27.60;14.03;;;;;;;-0.43;63.11;99962.31;4936110;28;98408;-86
2022/11/19 06:18:13;;;;;;;26.40;14.10;;;;;;;-0.75;62.96;99914.88;4919716;28;100525;-87
2022/11/19 06:20:38;;;;;;;28.40;15.23;;;;;;;-0.49;63.16;99961.41;4933550;28;96725;-86
2022/11/19 06:23:03;;;;;;;28.10;14.47;;;;;;;-0.94;63.60;99905.31;4935913;28;97077;-86
2022/11/19 06:25:29;;;;;;;26.23;13.40;;;;;;;-0.83;63.13;99921.69;4952855;28;97527;-86
2022/11/19 06:27:54;;;;;;;27.13;14.17;;;;;;;-0.72;63.73;99950.97;4915859;28;100091;-86
2022/11/19 06:30:20;;;;;;;23.17;13.37;;;;;;;-0.63;63.50;99969.94;4935909;28;96765;-86
2022/11/19 06:32:45;;;;;;;24.80;13.30;;;;;;;-0.57;63.58;99965.66;4935603;28;97138;-86
2022/11/19 06:35:12;;;;;;;23.37;13.10;;;;;;;-0.70;63.26;99941.53;4919196;28;100421;-86
2022/11/19 06:37:37;;;;;;;28.20;13.23;;;;;;;-0.57;63.51;99962.22;4918774;28;101487;-86
2022/11/19 06:40:03;;;;;;;24.77;14.10;;;;;;;-0.50;63.64;99963.97;4952418;28;96837;-86
2022/11/19 06:42:37;;;;;;;23.23;14.70;;;;;;;-0.57;63.57;99964.81;4936065;28;97218;-86
2022/11/19 06:45:03;;;;;;;22.57;13.10;;;;;;;-0.61;63.64;99970.78;4936940;28;98296;-86
2022/11/19 06:47:30;;;;;;;24.90;14.80;;;;;;;-0.56;63.78;99977.69;4953955;28;98098;-86
2022/11/19 06:49:55;;;;;;;21.57;13.23;;;;;;;-0.71;64.09;99957.84;4919582;28;97318;-86
2022/11/19 06:52:21;;;;;;;26.47;14.60;;;;;;;-0.52;63.73;99979.44;4934876;28;96970;-86
2022/11/19 06:54:46;;;;;;;24.33;14.60;;;;;;;-0.52;63.90;99978.59;4934206;28;100160;-85
2022/11/19 06:57:12;;;;;;;24.30;14.40;;;;;;;-0.63;63.97;99972.50;4936002;28;98067;-86
2022/11/19 06:59:37;;;;;;;25.20;14.47;;;;;;;-0.55;64.09;99976.00;4935723;28;97126;-86
2022/11/19 07:02:04;;;;;;;26.27;14.03;;;;;;;-0.61;64.99;99965.63;4935370;28;97124;-86
2022/11/19 07:04:29;;;;;;;31.40;15.73;;;;;;;-0.57;64.14;99952.78;4951802;28;98466;-86
2022/11/19 07:06:54;;;;;;;29.13;15.37;;;;;;;-0.46;63.75;99976.03;4951363;28;101143;-86
2022/11/19 07:09:20;;;;;;;29.47;16.13;;;;;;;-0.54;63.77;99947.63;4943073;28;96777;-86
2022/11/19 07:11:45;;;;;;;27.93;15.40;;;;;;;-0.24;63.53;99990.75;4952081;28;96686;-86
2022/11/19 07:14:11;;;;;;;27.63;16.47;;;;;;;-0.18;63.30;99978.75;4935099;28;101501;-86
2022/11/19 07:16:37;;;;;;;30.00;17.10;;;;;;;0.08;62.68;99995.19;4953384;28;98380;-86
2022/11/19 07:19:04;;;;;;;31.07;17.77;;;;;;;0.09;63.02;99976.28;4934047;28;97325;-87
2022/11/19 07:21:30;;;;;;;35.63;18.23;;;;;;;0.33;62.26;100005.59;4919768;28;96807;-86
2022/11/19 07:23:56;;;;;;;33.83;17.40;;;;;;;0.44;62.32;99996.16;4918097;28;100189;-87
2022/11/19 07:26:22;;;;;;;32.00;16.90;;;;;;;0.47;62.40;99996.16;4937645;28;97963;-86
2022/11/19 07:28:47;;;;;;;29.00;17.00;;;;;;;0.56;61.49;99990.13;4935261;28;96948;-86
2022/11/19 07:31:13;;;;;;;29.83;17.63;;;;;;;0.66;61.79;99994.44;4932919;28;97245;-86
2022/11/19 07:33:39;;;;;;;37.30;20.23;;;;;;;0.76;61.63;100011.69;4922119;28;101627;-86
2022/11/19 07:36:06;;;;;;;37.87;20.53;;;;;;;0.81;61.02;99986.69;4935834;28;98126;-86
2022/11/19 07:38:31;;;;;;;32.67;18.27;;;;;;;0.74;60.87;99958.28;4920985;28;96721;-86
2022/11/19 07:40:57;;;;;;;32.50;18.63;;;;;;;1.21;60.58;99996.16;4944783;28;96920;-86
2022/11/19 07:43:22;;;;;;;38.07;18.93;;;;;;;1.05;60.32;99957.41;4934655;28;98287;-85
2022/11/19 07:45:48;;;;;;;34.30;19.17;;;;;;;1.26;60.32;99973.75;4935274;28;98097;-85
2022/11/19 07:48:14;;;;;;;58.80;27.83;;;;;;;1.49;59.98;99995.25;4934903;28;96879;-86
2022/11/19 07:50:40;;;;;;;52.43;25.73;;;;;;;1.64;59.82;100006.44;4935418;28;96887;-86
2022/11/19 07:53:06;;;;;;;49.73;25.60;;;;;;;1.57;59.42;99974.53;4934499;28;100936;-86
2022/11/19 07:55:32;;;;;;;38.13;20.87;;;;;;;1.93;59.61;100001.16;4951589;28;98044;-85
2022/11/19 07:57:57;;;;;;;36.53;20.73;;;;;;;2.06;59.11;99976.06;4934825;28;97274;-86
2022/11/19 08:00:23;;;;;;;34.47;20.97;;;;;;;1.96;nan;99955.41;4915556;28;96898;-86
2022/11/19 08:02:49;;;;;;;37.30;21.10;;;;;;;2.35;58.72;99987.13;4942915;28;98389;-86
2022/11/19 08:05:15;;;;;;;38.73;21.70;;;;;;;2.46;58.08;99969.78;4934844;28;100672;-86
2022/11/19 08:07:40;;;;;;;36.43;21.83;;;;;;;2.92;57.21;99995.38;4934595;28;97123;-86
2022/11/19 08:10:07;;;;;;;39.33;21.73;;;;;;;2.88;56.93;99970.38;4918490;28;97917;-86
2022/11/19 08:12:32;;;;;;;50.30;26.73;;;;;;;3.01;56.29;99965.91;4918463;28;100859;-86
2022/11/19 08:14:58;;;;;;;38.93;23.60;;;;;;;3.31;55.72;99993.28;4933477;28;99636;-86
2022/11/19 08:20:08;;;;;;;33.50;19.43;;;;;;;3.23;55.39;99968.31;4933759;28;97078;-86
2022/11/19 08:22:37;;;;;;;34.30;20.40;;;;;;;3.50;55.66;99988.78;4914751;28;101654;-86
2022/11/19 08:25:03;;;;;;;35.40;20.13;;;;;;;3.59;55.08;99993.88;4931576;28;101545;-86
2022/11/19 08:27:28;;;;;;;36.30;19.50;;;;;;;3.72;54.80;99975.56;4946058;28;97165;-86
2022/11/19 08:29:54;;;;;;;35.27;19.80;;;;;;;3.96;54.56;99993.47;4951761;28;96729;-86
2022/11/19 08:32:19;;;;;;;26.67;16.90;;;;;;;4.07;54.01;99986.41;4952818;28;98175;-86
2022/11/19 08:34:45;;;;;;;31.70;16.83;;;;;;;4.16;53.77;99990.63;4920801;28;100335;-86
2022/11/19 08:37:12;;;;;;;33.00;17.73;;;;;;;4.63;52.44;99968.28;4937446;28;96731;-86
2022/11/19 08:39:39;;;;;;;26.73;17.40;;;;;;;4.96;52.25;99984.25;4937520;28;97393;-87
2022/11/19 08:44:49;;;;;;;42.97;21.83;;;;;;;5.13;50.00;99979.63;4954897;28;97630;-86
2022/11/19 08:47:14;;;;;;;59.97;27.80;;;;;;;5.03;51.24;99984.97;4953909;28;96761;-86
2022/11/19 08:49:40;;;;;;;37.77;22.40;;;;;;;5.47;50.26;99976.41;4937130;28;96862;-86
2022/11/19 08:52:05;;;;;;;39.07;22.10;;;;;;;5.56;50.23;99981.44;4937170;28;98468;-86
2022/11/19 08:54:31;;;;;;;34.83;20.47;;;;;;;5.55;49.71;99989.28;4953683;28;97934;-86
2022/11/19 08:56:57;;;;;;;29.30;18.13;;;;;;;5.76;49.33;99991.47;4953507;28;97091;-85
2022/11/19 08:59:22;;;;;;;29.77;17.57;;;;;;;5.45;49.08;99999.88;4937648;28;96895;-85
2022/11/19 09:01:49;;;;;;;32.80;19.93;;;;;;;5.76;48.43;99978.47;4920946;28;101018;-86
2022/11/19 09:04:14;;;;;;;27.33;18.77;;;;;;;5.89;48.75;100007.72;4936269;28;98390;-86
2022/11/19 09:06:40;;;;;;;27.27;17.90;;;;;;;5.35;48.76;99964.50;4937039;28;97135;-85
2022/11/19 09:09:06;;;;;;;39.10;23.90;;;;;;;5.61;48.85;99995.25;4936802;28;97271;-87
2022/11/19 09:11:31;;;;;;;36.07;20.80;;;;;;;5.72;48.61;99991.56;4953805;28;98367;-86
2022/11/19 09:13:57;;;;;;;31.77;19.80;;;;;;;5.84;48.69;100014.75;4953565;28;98202;-86
2022/11/19 09:16:22;;;;;;;25.23;17.87;;;;;;;5.64;49.45;99996.91;4935839;28;96815;-86
2022/11/19 09:18:48;;;;;;;25.30;17.10;;;;;;;5.68;49.12;100004.66;4937029;28;96893;-86
2022/11/19 09:21:14;;;;;;;26.87;17.43;;;;;;;5.95;49.08;100009.38;4934982;28;101397;-86
2022/11/19 09:23:43;;;;;;;25.67;15.93;;;;;;;5.97;48.54;99960.72;4936277;28;98218;-87
2022/11/19 09:26:12;;;;;;;26.57;17.07;;;;;;;6.17;48.04;99986.31;4937424;28;96767;-86
2022/11/19 09:28:37;;;;;;;25.33;16.80;;;;;;;6.75;45.97;100006.78;4936679;28;96829;-86
2022/11/19 09:31:06;;;;;;;30.95;16.67;;;;;;;6.86;45.93;99996.06;4936008;28;99713;-86
2022/11/19 09:33:33;;;;;;;24.40;16.30;;;;;;;6.57;46.62;100002.84;4920239;28;101626;-87
2022/11/19 09:35:59;;;;;;;24.58;15.68;;;;;;;7.08;45.33;100001.63;4936305;28;96960;-85
2022/11/19 09:38:24;;;;;;;25.88;16.58;;;;;;;6.81;46.40;99984.91;4920696;28;96900;-86
2022/11/19 09:40:52;;;;;;;22.67;16.13;;;;;;;6.98;45.90;99995.78;4920097;28;100995;-86
2022/11/19 09:43:39;;;;;;;23.73;16.00;;;;;;;6.91;45.74;100001.19;4936658;28;99201;-86
2022/11/19 09:46:27;;;;;;;25.33;16.30;;;;;;;7.12;46.37;99999.78;4952615;28;96749;-86
2022/11/19 09:48:54;;;;;;;26.85;16.90;;;;;;;7.09;45.97;100002.47;4920777;28;96812;-87
2022/11/19 09:51:27;;;;;;;23.20;16.48;;;;;;;7.00;45.82;99998.34;4936434;28;100748;-86
2022/11/19 09:54:09;;;;;;;26.58;16.58;;;;;;;7.15;45.78;99997.94;4935984;28;100402;-87
2022/11/19 09:56:37;;;;;;;29.48;17.65;;;;;;;7.08;45.09;100001.63;4920086;28;97128;-87
2022/11/19 09:59:25;;;;;;;32.10;17.02;;;;;;;7.16;44.23;99993.63;4953185;28;97952;-87
2022/11/19 10:01:51;;;;;;;23.63;16.10;;;;;;;6.67;46.14;100000.00;4936919;28;98023;-87
2022/11/19 10:04:21;;;;;;;23.23;15.57;;;;;;;6.33;46.87;100012.03;4933382;28;101246;-87
2022/11/19 10:06:47;;;;;;;24.63;16.58;;;;;;;5.80;47.04;100013.97;4937259;28;96738;-87
2022/11/19 10:09:23;;;;;;;16.90;12.95;;;;;;;5.77;47.07;100008.81;4951507;28;96867;-87
2022/11/19 10:12:33;;;;;;;22.80;12.65;;;;;;;5.44;45.76;100012.94;4935431;28;101832;-87
2022/11/19 10:15:05;;;;;;;17.70;11.77;;;;;;;5.30;46.62;99991.47;4918597;28;100985;-87
2022/11/19 10:17:36;;;;;;;18.55;12.00;;;;;;;5.15;47.29;99993.47;4966657;28;96844;-87
2022/11/19 10:20:20;;;;;;;;;;;;;;;4.91;47.61;100005.09;4953588;28;96792;-86
2022/11/19 10:23:07;;;;;;;18.53;11.27;;;;;;;4.58;48.32;100014.28;4936045;28;100391;-87
2022/11/19 10:25:42;;;;;;;19.77;11.93;;;;;;;4.61;48.12;100003.00;4952255;28;100399;-88
2022/11/19 10:28:23;;;;;;;16.93;11.07;;;;;;;4.63;47.96;99983.03;4955750;28;97586;-87
2022/11/19 10:30:54;;;;;;;20.20;11.63;;;;;;;4.52;47.96;99993.59;4933881;28;97028;-87
2022/11/19 10:33:33;;;;;;;22.93;11.93;;;;;;;4.57;48.21;100007.38;4920007;28;101744;-87
2022/11/19 10:36:08;;;;;;;20.57;14.00;;;;;;;4.59;48.38;100002.16;4920216;28;101028;-87
2022/11/19 10:38:37;;;;;;;19.87;13.60;;;;;;;4.49;48.84;100011.84;4936034;28;97321;-87
2022/11/19 10:41:14;;;;;;;23.23;13.07;;;;;;;4.30;48.88;100000.81;4952819;28;96757;-86
2022/11/19 10:43:47;;;;;;;18.20;12.27;;;;;;;4.21;49.25;100003.53;4932033;28;101572;-87
2022/11/19 10:46:18;;;;;;;22.90;13.03;;;;;;;4.12;49.58;99994.13;4930518;28;102310;-87
2022/11/19 10:48:50;;;;;;;21.85;13.60;;;;;;;4.04;49.48;99977.78;4919781;28;96836;-87
2022/11/19 10:51:29;;;;;;;30.25;17.30;;;;;;;4.16;49.95;99988.03;4936410;28;98128;-86
2022/11/19 10:53:55;;;;;;;24.50;15.93;;;;;;;4.13;50.46;99969.00;4918840;28;99969;-86
2022/11/19 10:56:23;;;;;;;25.73;15.73;;;;;;;4.19;49.86;99988.00;4936112;28;96958;-86
2022/11/19 10:58:51;;;;;;;21.47;14.90;;;;;;;4.36;49.48;99994.69;4935949;28;96855;-88
2022/11/19 11:01:31;;;;;;;26.90;13.13;;;;;;;4.35;48.69;99978.22;4951030;28;97848;-87
2022/11/19 11:04:06;;;;;;;16.63;11.63;;;;;;;4.43;49.43;99958.19;4939154;28;101177;-88
2022/11/19 11:06:54;;;;;;;17.10;12.03;;;;;;;4.65;49.37;99989.91;4952508;28;97982;-88
2022/11/19 11:09:32;;;;;;;16.10;11.43;;;;;;;4.69;47.88;99978.59;4952175;28;96793;-87
2022/11/19 11:14:53;;;;;;;30.97;11.57;;;;;;;4.69;47.57;99970.81;4951704;28;98594;-87
2022/11/19 11:17:27;;;;;;;17.90;11.27;;;;;;;4.63;48.01;99962.25;4936829;28;98764;-87
2022/11/19 11:20:07;;;;;;;13.27;8.93;;;;;;;4.57;46.60;99950.19;4934994;28;97849;-87
2022/11/19 11:22:33;;;;;;;13.87;9.20;;;;;;;4.57;46.23;99965.78;4935578;28;97167;-87
2022/11/19 11:24:59;;;;;;;15.63;8.70;;;;;;;4.59;45.56;99974.41;4952238;28;97549;-87
2022/11/19 11:27:32;;;;;;;13.33;8.87;;;;;;;4.49;44.28;99939.06;4934254;28;101223;-87
2022/11/19 11:30:12;;;;;;;16.87;9.30;;;;;;;4.46;44.67;99968.53;4939174;28;99526;-87
2022/11/19 11:32:39;;;;;;;16.30;8.83;;;;;;;4.43;44.14;99963.38;4952025;28;97275;-87
2022/11/19 11:35:05;;;;;;;13.23;8.83;;;;;;;4.27;45.06;99949.75;4934956;28;98436;-87
2022/11/19 11:37:31;;;;;;;12.70;7.63;;;;;;;4.27;43.77;99962.72;4950810;28;100852;-87
2022/11/19 11:39:57;;;;;;;8.10;5.03;;;;;;;4.36;44.19;99956.53;4935579;28;96793;-87
2022/11/19 11:42:25;;;;;;;10.63;6.53;;;;;;;4.37;43.41;99954.84;4951969;28;96827;-87
2022/11/19 11:44:55;;;;;;;12.37;7.27;;;;;;;4.33;43.64;99959.19;4931665;28;101311;-87
2022/11/19 11:47:27;;;;;;;8.80;6.17;;;;;;;4.15;42.58;99955.13;4910367;28;102567;-87
2022/11/19 11:50:00;;;;;;;12.95;7.57;;;;;;;4.23;42.53;99957.63;4932248;28;96652;-87
2022/11/19 11:52:45;;;;;;;10.37;7.13;;;;;;;3.88;43.97;99935.56;4929438;28;97713;-87
2022/11/19 11:55:16;;;;;;;13.83;9.33;;;;;;;4.06;44.89;99957.84;4917931;28;101471;-87